sensor_id;sensor_type;location;lat;lon;timestamp;pressure;altitude;pressure_sealevel;temperature;humidity
26915;BME280;14480;52.608;13.416;2023-04-25T06:34:08;142341.13;;;-6.74;100.00
26915;BME280;14480;52.608;13.416;2023-04-25T06:39:15;142307.72;;;-6.88;100.00
26915;BME280;14480;52.608;13.416;2023-04-25T06:44:21;142285.47;;;-6.97;100.00
26915;BME280;14480;52.608;13.416;2023-04-25T06:49:31;142269.41;;;-7.04;100.00
26915;BME280;14480;52.608;13.416;2023-04-25T06:54:35;142275.59;;;-7.01;100.00
26915;BME280;14480;52.608;13.416;2023-04-25T06:59:51;142275.59;;;-7.01;100.00
26915;BME280;14480;52.608;13.416;2023-04-25T07:04:59;142265.72;;;-7.06;100.00
26915;BME280;14480;52.608;13.416;2023-04-25T07:10:03;142258.25;;;-7.09;100.00
26915;BME280;14480;52.608;13.416;2023-04-25T07:15:07;142218.72;;;-7.25;100.00
26915;BME280;14480;52.608;13.416;2023-04-25T07:20:15;142275.59;;;-7.01;100.00
26915;BME280;14480;52.608;13.416;2023-04-25T07:25:22;142304.03;;;-6.90;100.00
26915;BME280;14480;52.608;13.416;2023-04-25T07:30:26;142357.22;;;-6.68;100.00
26915;BME280;14480;52.608;13.416;2023-04-25T07:35:31;142362.16;;;-6.66;100.00
26915;BME280;14480;52.608;13.416;2023-04-25T07:40:34;142352.28;;;-6.70;100.00
26915;BME280;14480;52.608;13.416;2023-04-25T07:45:41;142352.28;;;-6.70;100.00
26915;BME280;14480;52.608;13.416;2023-04-25T07:50:47;142370.78;;;-6.62;100.00
26915;BME280;14480;52.608;13.416;2023-04-25T07:55:51;142457.38;;;-6.27;100.00
26915;BME280;14480;52.608;13.416;2023-04-25T08:00:56;142546.53;;;-5.90;100.00
26915;BME280;14480;52.608;13.416;2023-04-25T08:06:38;142603.41;;;-5.67;100.00
26915;BME280;14480;52.608;13.416;2023-04-25T08:11:48;142540.31;;;-5.93;100.00
26915;BME280;14480;52.608;13.416;2023-04-25T08:16:55;142488.31;;;-6.14;100.00
26915;BME280;14480;52.608;13.416;2023-04-25T08:22:01;142504.44;;;-6.07;100.00
26915;BME280;14480;52.608;13.416;2023-04-25T08:27:15;142458.63;;;-6.26;100.00
26915;BME280;14480;52.608;13.416;2023-04-25T08:32:21;142634.38;;;-5.54;100.00
26915;BME280;14480;52.608;13.416;2023-04-25T08:37:44;142802.81;;;-4.85;100.00
26915;BME280;14480;52.608;13.416;2023-04-25T08:42:50;142769.31;;;-4.99;100.00
26915;BME280;14480;52.608;13.416;2023-04-25T08:47:53;142905.63;;;-4.43;96.91
26915;BME280;14480;52.608;13.416;2023-04-25T08:53:00;142962.66;;;-4.19;88.33
26915;BME280;14480;52.608;13.416;2023-04-25T08:58:07;143076.72;;;-3.72;85.29
26915;BME280;14480;52.608;13.416;2023-04-25T09:03:11;143148.69;;;-3.43;81.19
26915;BME280;14480;52.608;13.416;2023-04-25T09:08:17;143051.91;;;-3.83;79.24
26915;BME280;14480;52.608;13.416;2023-04-25T09:13:24;142980.03;;;-4.12;80.85
26915;BME280;14480;52.608;13.416;2023-04-25T09:18:47;143082.94;;;-3.70;81.19
26915;BME280;14480;52.608;13.416;2023-04-25T09:23:53;143280.22;;;-2.89;77.10
26915;BME280;14480;52.608;13.416;2023-04-25T09:29:04;143216.88;;;-3.15;75.37
26915;BME280;14480;52.608;13.416;2023-04-25T09:34:08;143096.56;;;-3.64;75.45
26915;BME280;14480;52.608;13.416;2023-04-25T09:39:29;143192.06;;;-3.25;74.74
26915;BME280;14480;52.608;13.416;2023-04-25T09:44:43;143142.47;;;-3.45;72.74
26915;BME280;14480;52.608;13.416;2023-04-25T09:49:48;142900.69;;;-4.45;76.25
26915;BME280;14480;52.608;13.416;2023-04-25T09:54:54;143028.38;;;-3.92;75.06
26915;BME280;14480;52.608;13.416;2023-04-25T10:00:06;143085.44;;;-3.69;70.87
26915;BME280;14480;52.608;13.416;2023-04-25T10:05:16;143071.75;;;-3.74;69.01
26915;BME280;14480;52.608;13.416;2023-04-25T10:10:22;143060.63;;;-3.79;69.16
26915;BME280;14480;52.608;13.416;2023-04-25T10:15:32;143075.47;;;-3.73;67.67
26915;BME280;14480;52.608;13.416;2023-04-25T10:20:43;142924.25;;;-4.35;68.05
26915;BME280;14480;52.608;13.416;2023-04-25T10:25:48;142921.75;;;-4.36;67.67
26915;BME280;14480;52.608;13.416;2023-04-25T10:30:59;142915.56;;;-4.38;68.54
26915;BME280;14480;52.608;13.416;2023-04-25T10:36:10;142946.56;;;-4.26;65.95
26915;BME280;14480;52.608;13.416;2023-04-25T10:41:16;143068.06;;;-3.76;65.93
26915;BME280;14480;52.608;13.416;2023-04-25T10:46:21;143107.72;;;-3.60;66.26
26915;BME280;14480;52.608;13.416;2023-04-25T10:51:26;143167.28;;;-3.35;65.30
26915;BME280;14480;52.608;13.416;2023-04-25T10:56:42;143239.22;;;-3.06;64.49
26915;BME280;14480;52.608;13.416;2023-04-25T11:01:47;143255.38;;;-2.99;62.51
26915;BME280;14480;52.608;13.416;2023-04-25T11:06:55;142983.72;;;-4.11;65.33
26915;BME280;14480;52.608;13.416;2023-04-25T11:12:10;142541.53;;;-5.92;68.96
26915;BME280;14480;52.608;13.416;2023-04-25T11:17:15;142519.31;;;-6.01;67.48
26915;BME280;14480;52.608;13.416;2023-04-25T11:22:18;142664.09;;;-5.42;70.46
26915;BME280;14480;52.608;13.416;2023-04-25T11:27:25;142778.03;;;-4.95;66.60
26915;BME280;14480;52.608;13.416;2023-04-25T11:32:31;142810.22;;;-4.82;63.57
26915;BME280;14480;52.608;13.416;2023-04-25T11:37:34;142817.66;;;-4.79;63.98
26915;BME280;14480;52.608;13.416;2023-04-25T11:42:46;142918.06;;;-4.37;63.49
26915;BME280;14480;52.608;13.416;2023-04-25T11:47:49;142914.34;;;-4.39;63.21
26915;BME280;14480;52.608;13.416;2023-04-25T11:52:55;142904.38;;;-4.43;63.16
26915;BME280;14480;52.608;13.416;2023-04-25T11:58:03;142857.34;;;-4.62;65.40
26915;BME280;14480;52.608;13.416;2023-04-25T12:03:08;142892.03;;;-4.48;64.91
26915;BME280;14480;52.608;13.416;2023-04-25T12:08:12;142784.22;;;-4.92;62.69
26915;BME280;14480;52.608;13.416;2023-04-25T12:13:21;142831.31;;;-4.73;63.39
26915;BME280;14480;52.608;13.416;2023-04-25T12:18:27;142947.78;;;-4.25;62.06
26915;BME280;14480;52.608;13.416;2023-04-25T12:23:31;142930.44;;;-4.32;60.54
26915;BME280;14480;52.608;13.416;2023-04-25T12:28:36;142939.09;;;-4.29;61.50
26915;BME280;14480;52.608;13.416;2023-04-25T12:33:39;143091.63;;;-3.66;60.24
26915;BME280;14480;52.608;13.416;2023-04-25T12:38:44;143060.63;;;-3.79;61.11
26915;BME280;14480;52.608;13.416;2023-04-25T12:43:49;143045.72;;;-3.85;61.73
26915;BME280;14480;52.608;13.416;2023-04-25T12:48:53;143040.75;;;-3.87;61.94
26915;BME280;14480;52.608;13.416;2023-04-25T12:54:18;143095.34;;;-3.65;63.45
26915;BME280;14480;52.608;13.416;2023-04-25T12:59:23;143123.84;;;-3.53;61.95
26915;BME280;14480;52.608;13.416;2023-04-25T13:04:26;143229.31;;;-3.10;66.71
26915;BME280;14480;52.608;13.416;2023-04-25T13:09:30;143247.91;;;-3.02;65.43
26915;BME280;14480;52.608;13.416;2023-04-25T13:14:35;143199.53;;;-3.22;60.32
26915;BME280;14480;52.608;13.416;2023-04-25T13:19:38;143024.63;;;-3.94;63.89
26915;BME280;14480;52.608;13.416;2023-04-25T13:24:44;142921.75;;;-4.36;65.53
26915;BME280;14480;52.608;13.416;2023-04-25T13:29:49;142878.38;;;-4.54;64.37
26915;BME280;14480;52.608;13.416;2023-04-25T13:34:52;142721.06;;;-5.18;66.23
26915;BME280;14480;52.608;13.416;2023-04-25T13:39:56;142608.38;;;-5.65;68.55
26915;BME280;14480;52.608;13.416;2023-04-25T13:45:00;142482.13;;;-6.17;71.32
26915;BME280;14480;52.608;13.416;2023-04-25T13:50:06;142599.66;;;-5.68;70.63
26915;BME280;14480;52.608;13.416;2023-04-25T13:55:10;142525.47;;;-5.99;72.24
26915;BME280;14480;52.608;13.416;2023-04-25T14:00:15;142583.59;;;-5.75;71.97
26915;BME280;14480;52.608;13.416;2023-04-25T14:05:19;142707.41;;;-5.24;68.75
26915;BME280;14480;52.608;13.416;2023-04-25T14:10:22;142827.56;;;-4.75;67.88
26915;BME280;14480;52.608;13.416;2023-04-25T14:15:27;142817.66;;;-4.79;67.92
26915;BME280;14480;52.608;13.416;2023-04-25T14:20:31;142755.72;;;-5.04;69.69
26915;BME280;14480;52.608;13.416;2023-04-25T14:25:34;142794.09;;;-4.88;69.67
26915;BME280;14480;52.608;13.416;2023-04-25T14:30:40;142794.09;;;-4.88;68.76
26915;BME280;14480;52.608;13.416;2023-04-25T14:35:43;142752.00;;;-5.06;69.53
26915;BME280;14480;52.608;13.416;2023-04-25T14:40:49;142691.34;;;-5.31;72.01
26915;BME280;14480;52.608;13.416;2023-04-25T14:45:54;142629.38;;;-5.56;71.71
26915;BME280;14480;52.608;13.416;2023-04-25T14:51:00;142629.38;;;-5.56;72.80
26915;BME280;14480;52.608;13.416;2023-04-25T14:56:04;142691.34;;;-5.31;72.09
26915;BME280;14480;52.608;13.416;2023-04-25T15:01:09;142645.50;;;-5.49;71.45
26915;BME280;14480;52.608;13.416;2023-04-25T15:06:13;142594.72;;;-5.70;72.82
26915;BME280;14480;52.608;13.416;2023-04-25T15:11:19;142555.13;;;-5.87;74.13
26915;BME280;14480;52.608;13.416;2023-04-25T15:16:25;142646.72;;;-5.49;73.27
26915;BME280;14480;52.608;13.416;2023-04-25T15:21:29;142675.22;;;-5.37;71.48
26915;BME280;14480;52.608;13.416;2023-04-25T15:26:32;142686.34;;;-5.33;68.06
26915;BME280;14480;52.608;13.416;2023-04-25T15:31:39;142701.22;;;-5.26;69.85
26915;BME280;14480;52.608;13.416;2023-04-25T15:36:47;142645.50;;;-5.49;68.09
26915;BME280;14480;52.608;13.416;2023-04-25T15:41:53;142612.06;;;-5.63;69.04
26915;BME280;14480;52.608;13.416;2023-04-25T15:46:58;142603.41;;;-5.67;69.46
26915;BME280;14480;52.608;13.416;2023-04-25T15:52:02;142578.66;;;-5.77;70.62
26915;BME280;14480;52.608;13.416;2023-04-25T15:57:09;142586.06;;;-5.74;69.70
26915;BME280;14480;52.608;13.416;2023-04-25T16:02:17;142624.44;;;-5.58;71.32
26915;BME280;14480;52.608;13.416;2023-04-25T16:07:21;142545.25;;;-5.91;69.98
26915;BME280;14480;52.608;13.416;2023-04-25T16:12:24;142547.72;;;-5.90;68.84
26915;BME280;14480;52.608;13.416;2023-04-25T16:17:31;142513.06;;;-6.04;68.19
26915;BME280;14480;52.608;13.416;2023-04-25T16:22:35;142508.13;;;-6.06;70.85
26915;BME280;14480;52.608;13.416;2023-04-25T16:27:38;142469.78;;;-6.22;71.01
26915;BME280;14480;52.608;13.416;2023-04-25T16:32:43;142519.31;;;-6.01;67.70
26915;BME280;14480;52.608;13.416;2023-04-25T16:37:48;142468.56;;;-6.22;66.86
26915;BME280;14480;52.608;13.416;2023-04-25T16:42:51;142445.03;;;-6.32;69.11
26915;BME280;14480;52.608;13.416;2023-04-25T16:47:56;142370.78;;;-6.62;68.83
26915;BME280;14480;52.608;13.416;2023-04-25T16:53:01;142515.53;;;-6.03;69.59
26915;BME280;14480;52.608;13.416;2023-04-25T16:58:05;142532.88;;;-5.96;70.52
26915;BME280;14480;52.608;13.416;2023-04-25T17:03:14;142513.06;;;-6.04;70.77
26915;BME280;14480;52.608;13.416;2023-04-25T17:08:18;142430.16;;;-6.38;71.50
26915;BME280;14480;52.608;13.416;2023-04-25T17:13:22;142339.88;;;-6.75;74.75
26915;BME280;14480;52.608;13.416;2023-04-25T17:18:34;142337.41;;;-6.76;74.71
26915;BME280;14480;52.608;13.416;2023-04-25T17:23:40;142291.63;;;-6.95;75.73
26915;BME280;14480;52.608;13.416;2023-04-25T17:28:46;142273.13;;;-7.02;75.78
26915;BME280;14480;52.608;13.416;2023-04-25T17:33:52;142238.50;;;-7.17;77.65
26915;BME280;14480;52.608;13.416;2023-04-25T17:38:56;142185.34;;;-7.39;77.55
26915;BME280;14480;52.608;13.416;2023-04-25T17:44:00;142153.22;;;-7.52;79.33
26915;BME280;14480;52.608;13.416;2023-04-25T17:49:06;142165.56;;;-7.47;80.09
26915;BME280;14480;52.608;13.416;2023-04-25T17:54:12;142169.25;;;-7.45;80.55
26915;BME280;14480;52.608;13.416;2023-04-25T17:59:15;142195.22;;;-7.35;79.52
26915;BME280;14480;52.608;13.416;2023-04-25T18:04:21;142176.66;;;-7.42;79.14
26915;BME280;14480;52.608;13.416;2023-04-25T18:09:25;142154.44;;;-7.51;82.93
26915;BME280;14480;52.608;13.416;2023-04-25T18:14:31;142153.22;;;-7.52;81.23
26915;BME280;14480;52.608;13.416;2023-04-25T18:19:37;142119.81;;;-7.66;81.58
26915;BME280;14480;52.608;13.416;2023-04-25T18:24:40;142065.44;;;-7.88;83.07
26915;BME280;14480;52.608;13.416;2023-04-25T18:29:45;142011.06;;;-8.10;84.71
26915;BME280;14480;52.608;13.416;2023-04-25T18:34:53;141970.34;;;-8.27;85.92
26915;BME280;14480;52.608;13.416;2023-04-25T18:39:56;141928.41;;;-8.44;84.94
26915;BME280;14480;52.608;13.416;2023-04-25T18:45:00;141918.50;;;-8.48;83.79
26915;BME280;14480;52.608;13.416;2023-04-25T18:50:07;141861.72;;;-8.72;84.28
26915;BME280;14480;52.608;13.416;2023-04-25T18:55:10;141850.63;;;-8.76;84.84
26915;BME280;14480;52.608;13.416;2023-04-25T19:00:14;141823.47;;;-8.88;82.16
26915;BME280;14480;52.608;13.416;2023-04-25T19:05:20;141818.53;;;-8.90;82.00
26915;BME280;14480;52.608;13.416;2023-04-25T19:10:24;141829.63;;;-8.85;81.79
26915;BME280;14480;52.608;13.416;2023-04-25T19:15:29;141816.06;;;-8.91;81.34
26915;BME280;14480;52.608;13.416;2023-04-25T19:20:38;141808.63;;;-8.94;82.20
26915;BME280;14480;52.608;13.416;2023-04-25T19:31:40;141719.78;;;-9.30;83.76
26915;BME280;14480;52.608;13.416;2023-04-25T19:42:27;141660.56;;;-9.55;85.42
26915;BME280;14480;52.608;13.416;2023-04-25T19:47:37;141656.88;;;-9.56;85.25
26915;BME280;14480;52.608;13.416;2023-04-25T19:52:41;141653.19;;;-9.58;86.64
26915;BME280;14480;52.608;13.416;2023-04-25T20:03:14;141607.53;;;-9.77;87.15
26915;BME280;14480;52.608;13.416;2023-04-25T20:08:19;141571.78;;;-9.91;88.86
26915;BME280;14480;52.608;13.416;2023-04-25T20:13:27;141542.19;;;-10.04;89.41
26915;BME280;14480;52.608;13.416;2023-04-25T20:19:06;141543.41;;;-10.03;90.80
26915;BME280;14480;52.608;13.416;2023-04-25T20:24:14;141505.16;;;-10.19;92.24
26915;BME280;14480;52.608;13.416;2023-04-25T20:29:20;141491.66;;;-10.24;92.94
26915;BME280;14480;52.608;13.416;2023-04-25T20:34:29;141431.28;;;-10.49;95.62
26915;BME280;14480;52.608;13.416;2023-04-25T20:39:33;141426.34;;;-10.51;97.19
26915;BME280;14480;52.608;13.416;2023-04-25T20:44:38;141416.47;;;-10.55;98.12
26915;BME280;14480;52.608;13.416;2023-04-25T20:49:45;141407.84;;;-10.59;97.97
26915;BME280;14480;52.608;13.416;2023-04-25T20:54:50;141369.66;;;-10.75;100.00
26915;BME280;14480;52.608;13.416;2023-04-25T20:59:57;141367.22;;;-10.76;100.00
26915;BME280;14480;52.608;13.416;2023-04-25T21:10:25;141353.63;;;-10.81;100.00
26915;BME280;14480;52.608;13.416;2023-04-25T21:15:36;141369.66;;;-10.75;100.00
26915;BME280;14480;52.608;13.416;2023-04-25T21:20:39;141320.38;;;-10.95;100.00
26915;BME280;14480;52.608;13.416;2023-04-25T21:25:44;141284.66;;;-11.10;100.00
26915;BME280;14480;52.608;13.416;2023-04-25T21:30:49;141144.28;;;-11.68;100.00
26915;BME280;14480;52.608;13.416;2023-04-25T21:35:56;141306.78;;;-11.01;100.00
